Terminal Aerodrome Forecast
Issued by NWS

Home | Current Version | Previous Version | Text Only | Print | Product List | Glossary On
Versions: 1 2 3 4 5 6 7 8 9 10 11 12 13 14 15 16
000
FTAK31 PAJN 221700
TAFAKT
TAF
PAKT 221730Z 2218/2318 15005KT P6SM VCSH SCT040 OVC070
     FM222100 14009KT P6SM BKN070
     FM230600 15010KT P6SM -RA BKN035 OVC050
     FM231200 14015G25KT 5SM -RA BKN025 OVC040 WS020/11040KT
     FM231500 14020G30KT 4SM -RA OVC025 WS020/13045KT
      AMD LTD TO CLD VIS AND WIND 2306/2315=

USA.gov is the U.S. government's official web portal to all federal, state and local government web resources and services.